createdAt,value
2023-04-30T00:00:16.454Z,99815.63
2023-04-30T00:02:43.067Z,99813.81
2023-04-30T00:05:09.921Z,99812.81
2023-04-30T00:07:36.469Z,99809.03
2023-04-30T00:10:03.214Z,99809.63
2023-04-30T00:12:29.776Z,99812.66
2023-04-30T00:14:56.514Z,99805.91
2023-04-30T00:17:23.618Z,99791.88
2023-04-30T00:19:50.928Z,99797.84
2023-04-30T00:22:17.774Z,99801.66
2023-04-30T00:24:44.391Z,99802.25
2023-04-30T00:27:11.008Z,99800.91
2023-04-30T00:29:37.822Z,99811.81
2023-04-30T00:32:04.591Z,99806.16
2023-04-30T00:34:31.440Z,99808.38
2023-04-30T00:36:58.036Z,99805.16
2023-04-30T00:39:24.645Z,99808.94
2023-04-30T00:41:51.225Z,99799.22
2023-04-30T00:44:17.777Z,99798.72
2023-04-30T00:46:44.299Z,99796.78
2023-04-30T00:49:10.910Z,99799.81
2023-04-30T00:51:42.120Z,99800.59
2023-04-30T00:54:08.802Z,99802.50
2023-04-30T00:56:36.189Z,99806.81
2023-04-30T00:59:02.912Z,99802.72
2023-04-30T01:01:29.862Z,99801.94
2023-04-30T01:03:56.619Z,99799.22
2023-04-30T01:06:24.000Z,99794.91
2023-04-30T01:08:50.876Z,99793.28
2023-04-30T01:11:37.733Z,99794.66
2023-04-30T01:14:38.551Z,99797.69
2023-04-30T01:17:38.851Z,99789.84
2023-04-30T01:20:09.197Z,99786.28
2023-04-30T01:22:46.286Z,99786.28
2023-04-30T01:25:40.677Z,99788.47
2023-04-30T01:28:09.841Z,99791.88
2023-04-30T01:30:38.053Z,99788.91
2023-04-30T01:33:04.662Z,99786.19
2023-04-30T01:35:37.005Z,99790.78
2023-04-30T01:38:45.282Z,99789.50
2023-04-30T01:41:34.674Z,99788.16
2023-04-30T01:44:31.957Z,99791.16
2023-04-30T01:47:07.853Z,99793.91
2023-04-30T01:50:00.828Z,99795.59
2023-04-30T01:52:41.226Z,99796.75
2023-04-30T01:55:14.087Z,99799.47
2023-04-30T01:57:45.815Z,99790.53
2023-04-30T02:00:13.487Z,99796.25
2023-04-30T02:02:40.466Z,99793.53
2023-04-30T02:05:07.336Z,99793.53
2023-04-30T02:07:40.580Z,99788.66
2023-04-30T02:10:08.356Z,99790.75
2023-04-30T02:12:35.705Z,99789.16
2023-04-30T02:15:05.697Z,99799.97
2023-04-30T02:17:32.516Z,99797.84
2023-04-30T02:19:59.899Z,99793.53
2023-04-30T02:22:26.947Z,99795.44
2023-04-30T02:24:55.594Z,99789.22
2023-04-30T02:27:24.765Z,99789.75
2023-04-30T02:29:52.458Z,99784.34
2023-04-30T02:32:19.710Z,99783.22
2023-04-30T02:34:46.323Z,99783.75
2023-04-30T02:37:12.864Z,99770.50
2023-04-30T02:39:39.429Z,99779.72
2023-04-30T02:42:07.004Z,99785.94
2023-04-30T02:44:34.312Z,99780.53
2023-04-30T02:47:01.693Z,99777.31
2023-04-30T02:49:28.784Z,99784.34
2023-04-30T02:51:55.619Z,99775.91
2023-04-30T02:54:22.190Z,99778.91
2023-04-30T02:56:48.733Z,99773.78
2023-04-30T02:59:15.305Z,99774.59
2023-04-30T03:01:41.986Z,99773.19
2023-04-30T03:04:08.621Z,99773.50
2023-04-30T03:06:35.347Z,99777.31
2023-04-30T03:09:01.893Z,99770.50
2023-04-30T03:11:28.412Z,99777.81
2023-04-30T03:13:55.128Z,99769.97
2023-04-30T03:16:22.303Z,99773.56
2023-04-30T03:18:49.730Z,99764.63
2023-04-30T03:21:16.353Z,99769.03
2023-04-30T03:23:43.020Z,99768.19
2023-04-30T03:26:09.639Z,99767.41
2023-04-30T03:28:36.220Z,99753.97
2023-04-30T03:31:05.473Z,99764.53
2023-04-30T03:33:33.360Z,99759.72
2023-04-30T03:35:59.952Z,99765.69
2023-04-30T03:38:26.545Z,99764.66
2023-04-30T03:40:53.264Z,99768.47
2023-04-30T03:43:19.877Z,99763.06
2023-04-30T03:45:46.536Z,99760.63
2023-04-30T03:48:13.458Z,99757.09
2023-04-30T03:50:40.040Z,99763.59
2023-04-30T03:53:06.543Z,99760.91
2023-04-30T03:55:34.361Z,99761.47
2023-04-30T03:58:01.037Z,99760.19
2023-04-30T04:00:27.595Z,99750.72
2023-04-30T04:02:55.268Z,99766.44
2023-04-30T04:05:21.839Z,99766.44
2023-04-30T04:07:48.368Z,99756.47
2023-04-30T04:10:14.973Z,99764.06
2023-04-30T04:12:41.570Z,99760.06
2023-04-30T04:15:08.984Z,99759.19
2023-04-30T04:17:35.672Z,99759.53
2023-04-30T04:20:02.250Z,99763.13
2023-04-30T04:22:28.841Z,99769.88
2023-04-30T04:24:55.419Z,99768.28
2023-04-30T04:27:21.930Z,99773.16
2023-04-30T04:29:48.723Z,99771.81
2023-04-30T04:32:15.835Z,99776.19
2023-04-30T04:34:43.679Z,99774.31
2023-04-30T04:37:10.264Z,99774.91
2023-04-30T04:39:37.401Z,99777.06
2023-04-30T04:42:05.011Z,99774.94
2023-04-30T04:44:32.412Z,99777.41
2023-04-30T04:46:59.015Z,99776.59
2023-04-30T04:49:25.727Z,99775.56
2023-04-30T04:51:52.316Z,99778.28
2023-04-30T04:54:18.935Z,99770.47
2023-04-30T04:56:45.546Z,99776.66
2023-04-30T04:59:12.612Z,99779.78
2023-04-30T05:01:39.214Z,99776.31
2023-04-30T05:04:05.973Z,99771.81
2023-04-30T05:06:33.109Z,99770.63
2023-04-30T05:08:59.792Z,99775.16
2023-04-30T05:11:26.397Z,99775.53
2023-04-30T05:13:52.938Z,99771.78
2023-04-30T05:16:19.533Z,99767.72
2023-04-30T05:18:46.126Z,99773.47
2023-04-30T05:21:12.646Z,99772.53
2023-04-30T05:23:39.183Z,99778.91
2023-04-30T05:26:05.993Z,99767.63
2023-04-30T05:28:33.272Z,99771.44
2023-04-30T05:30:59.853Z,99769.53
2023-04-30T05:33:26.561Z,99768.44
2023-04-30T05:35:53.206Z,99773.75
2023-04-30T05:38:19.746Z,99767.72
2023-04-30T05:40:46.424Z,99760.59
2023-04-30T05:43:13.028Z,99765.72
2023-04-30T05:45:39.660Z,99757.31
2023-04-30T05:48:06.380Z,99750.56
2023-04-30T05:50:32.941Z,99760.41
2023-04-30T05:52:59.486Z,99769.06
2023-04-30T05:55:26.127Z,99763.53
2023-04-30T05:57:52.681Z,99757.28
2023-04-30T06:00:19.493Z,99769.44
2023-04-30T06:02:46.039Z,99756.00
2023-04-30T06:05:15.314Z,99752.44
2023-04-30T06:07:42.689Z,99759.84
2023-04-30T06:10:10.215Z,99765.69
2023-04-30T06:12:36.807Z,99755.44
2023-04-30T06:15:03.809Z,99753.16
2023-04-30T06:17:30.384Z,99746.44
2023-04-30T06:19:59.003Z,99752.69
2023-04-30T06:22:25.559Z,99750.81
2023-04-30T06:24:52.125Z,99747.31
2023-04-30T06:27:18.654Z,99745.94
2023-04-30T06:29:45.380Z,99748.78
2023-04-30T06:32:11.901Z,99749.97
2023-04-30T06:34:38.938Z,99749.19
2023-04-30T06:37:05.958Z,99753.78
2023-04-30T06:39:32.566Z,99754.00
2023-04-30T06:41:59.048Z,99754.19
2023-04-30T06:44:25.539Z,99764.44
2023-04-30T06:46:52.106Z,99757.78
2023-04-30T06:49:18.713Z,99771.16
2023-04-30T06:51:45.289Z,99760.19
2023-04-30T06:54:11.860Z,99768.22
2023-04-30T06:56:38.400Z,99763.97
2023-04-30T06:59:05.137Z,99760.22
2023-04-30T07:01:31.758Z,99774.47
2023-04-30T07:03:59.202Z,99765.06
2023-04-30T07:06:25.950Z,99766.88
2023-04-30T07:08:52.545Z,99764.44
2023-04-30T07:11:19.103Z,99773.72
2023-04-30T07:13:45.634Z,99771.69
2023-04-30T07:16:12.226Z,99772.88
2023-04-30T07:18:39.634Z,99761.53
2023-04-30T07:21:06.424Z,99756.47
2023-04-30T07:23:32.975Z,99762.41
2023-04-30T07:25:59.574Z,99771.78
2023-04-30T07:28:26.306Z,99767.81
2023-04-30T07:30:53.319Z,99778.34
2023-04-30T07:33:19.827Z,99773.47
2023-04-30T07:35:46.392Z,99762.97
2023-04-30T07:38:13.046Z,99765.72
2023-04-30T07:40:39.597Z,99765.88
2023-04-30T07:43:06.478Z,99771.81
2023-04-30T07:45:34.867Z,99774.72
2023-04-30T07:48:01.815Z,99766.75
2023-04-30T07:50:29.742Z,99766.16
2023-04-30T07:52:56.371Z,99765.22
2023-04-30T07:55:22.974Z,99765.25
2023-04-30T07:57:49.511Z,99761.09
2023-04-30T08:00:16.591Z,99764.47
2023-04-30T08:02:46.065Z,99774.56
2023-04-30T08:05:12.899Z,99769.91
2023-04-30T08:07:39.799Z,99765.91
2023-04-30T08:10:06.853Z,99770.75
2023-04-30T08:12:37.087Z,99772.22
2023-04-30T08:15:05.253Z,99773.69
2023-04-30T08:17:32.696Z,99767.94
2023-04-30T08:19:59.988Z,99779.16
2023-04-30T08:22:26.784Z,99779.00
2023-04-30T08:24:55.103Z,99782.22
2023-04-30T08:27:22.374Z,99776.63
2023-04-30T08:29:49.073Z,99769.72
2023-04-30T08:32:15.886Z,99765.09
2023-04-30T08:34:43.616Z,99768.63
2023-04-30T08:37:10.272Z,99772.59
2023-04-30T08:39:36.819Z,99773.88
2023-04-30T08:42:08.446Z,99767.13
2023-04-30T08:44:39.612Z,99766.84
2023-04-30T08:47:08.231Z,99751.50
2023-04-30T08:49:37.026Z,99755.81
2023-04-30T08:52:03.808Z,99768.81
2023-04-30T08:54:35.317Z,99775.41
2023-04-30T08:57:02.674Z,99765.47
2023-04-30T08:59:29.545Z,99769.16
2023-04-30T09:01:56.431Z,99768.81
2023-04-30T09:04:23.154Z,99765.78
2023-04-30T09:06:53.599Z,99778.09
2023-04-30T09:09:20.325Z,99781.28
2023-04-30T09:11:46.848Z,99772.44
2023-04-30T09:14:13.437Z,99774.84
2023-04-30T09:16:51.399Z,99770.63
2023-04-30T09:19:29.889Z,99767.28
2023-04-30T09:21:56.731Z,99752.78
2023-04-30T09:24:24.130Z,99756.91
2023-04-30T09:26:51.517Z,99757.84
2023-04-30T09:29:18.048Z,99755.56
2023-04-30T09:31:47.184Z,99757.13
2023-04-30T09:34:14.672Z,99749.41
2023-04-30T09:36:55.080Z,99746.22
2023-04-30T09:39:22.254Z,99752.28
2023-04-30T09:41:50.657Z,99753.56
2023-04-30T09:44:28.533Z,99751.94
2023-04-30T09:46:56.781Z,99757.81
2023-04-30T09:49:23.390Z,99766.59
2023-04-30T09:52:01.146Z,99759.69
2023-04-30T09:54:30.564Z,99761.66
2023-04-30T09:57:02.327Z,99755.91
2023-04-30T09:59:37.852Z,99758.34
2023-04-30T10:02:06.721Z,99750.63
2023-04-30T10:04:41.898Z,99751.88
2023-04-30T10:07:22.511Z,99751.38
2023-04-30T10:09:50.882Z,99748.34
2023-04-30T10:12:26.070Z,99746.84
2023-04-30T10:15:02.850Z,99758.66
2023-04-30T10:17:33.323Z,99742.75
2023-04-30T10:20:05.806Z,99748.88
2023-04-30T10:22:34.871Z,99743.22
2023-04-30T10:25:02.310Z,99745.00
2023-04-30T10:27:30.387Z,99746.19
2023-04-30T10:29:58.289Z,99742.16
2023-04-30T10:32:36.832Z,99737.28
2023-04-30T10:35:16.244Z,99727.94
2023-04-30T10:38:07.714Z,99739.00
2023-04-30T10:40:37.309Z,99722.88
2023-04-30T10:43:03.938Z,99719.22
2023-04-30T10:45:38.210Z,99726.47
2023-04-30T10:48:06.889Z,99727.22
2023-04-30T10:50:39.556Z,99722.34
2023-04-30T10:53:07.194Z,99715.63
2023-04-30T10:55:33.817Z,99711.59
2023-04-30T10:58:00.414Z,99711.91
2023-04-30T11:00:31.956Z,99705.22
2023-04-30T11:03:04.003Z,99702.84
2023-04-30T11:05:36.774Z,99715.56
2023-04-30T11:08:03.710Z,99707.16
2023-04-30T11:10:34.724Z,99698.00
2023-04-30T11:13:10.222Z,99701.13
2023-04-30T11:15:41.804Z,99696.34
2023-04-30T11:18:09.517Z,99703.69
2023-04-30T11:20:42.130Z,99699.13
2023-04-30T11:23:17.420Z,99696.38
2023-04-30T11:25:55.214Z,99691.13
2023-04-30T11:28:23.485Z,99695.47
2023-04-30T11:30:58.915Z,99686.13
2023-04-30T11:33:31.387Z,99693.84
2023-04-30T11:35:59.636Z,99681.56
2023-04-30T11:38:37.667Z,99696.84
2023-04-30T11:41:05.082Z,99681.88
2023-04-30T11:43:33.780Z,99683.25
2023-04-30T11:46:06.559Z,99683.94
2023-04-30T11:48:34.926Z,99686.47
2023-04-30T11:51:07.480Z,99681.53
2023-04-30T11:53:34.111Z,99677.47
2023-04-30T11:56:04.179Z,99682.00
2023-04-30T11:58:34.482Z,99682.00
2023-04-30T12:01:01.584Z,99680.88
2023-04-30T12:03:29.348Z,99675.63
2023-04-30T12:05:56.225Z,99672.78
2023-04-30T12:08:23.689Z,99679.72
2023-04-30T12:10:50.346Z,99671.50
2023-04-30T12:13:16.875Z,99672.19
2023-04-30T12:15:43.594Z,99664.19
2023-04-30T12:18:14.133Z,99670.47
2023-04-30T12:20:42.011Z,99680.09
2023-04-30T12:23:08.745Z,99673.53
2023-04-30T12:25:43.967Z,99674.00
2023-04-30T12:28:11.763Z,99672.31
2023-04-30T12:30:38.479Z,99673.78
2023-04-30T12:33:06.167Z,99666.25
2023-04-30T12:35:32.778Z,99666.25
2023-04-30T12:38:07.015Z,99664.66
2023-04-30T12:40:33.891Z,99668.06
2023-04-30T12:43:02.531Z,99657.78
2023-04-30T12:45:52.351Z,99669.63
2023-04-30T12:48:21.392Z,99664.81
2023-04-30T12:51:02.158Z,99653.88
2023-04-30T12:53:29.699Z,99654.34
2023-04-30T12:56:17.515Z,99649.09
2023-04-30T12:58:47.367Z,99645.44
2023-04-30T13:01:17.267Z,99648.81
2023-04-30T13:03:44.067Z,99648.09
2023-04-30T13:06:10.746Z,99637.25
2023-04-30T13:08:49.554Z,99636.78
2023-04-30T13:11:24.289Z,99638.09
2023-04-30T13:13:51.169Z,99631.41
2023-04-30T13:16:17.738Z,99628.13
2023-04-30T13:18:44.298Z,99624.16
2023-04-30T13:21:10.839Z,99627.06
2023-04-30T13:23:44.798Z,99630.41
2023-04-30T13:26:18.897Z,99622.09
2023-04-30T13:28:45.482Z,99616.16
2023-04-30T13:31:12.291Z,99608.38
2023-04-30T13:33:38.894Z,99607.66
2023-04-30T13:36:05.988Z,99603.53
2023-04-30T13:38:33.079Z,99600.34
2023-04-30T13:40:59.588Z,99595.81
2023-04-30T13:43:26.168Z,99597.50
2023-04-30T13:45:52.737Z,99591.84
2023-04-30T13:48:19.403Z,99592.34
2023-04-30T13:50:46.015Z,99598.53
2023-04-30T13:53:12.669Z,99590.97
2023-04-30T13:55:39.186Z,99591.50
2023-04-30T13:58:05.928Z,99589.91
2023-04-30T14:00:32.517Z,99589.09
2023-04-30T14:02:59.208Z,99590.09
2023-04-30T14:05:25.869Z,99590.72
2023-04-30T14:07:52.429Z,99587.38
2023-04-30T14:10:19.140Z,99588.38
2023-04-30T14:12:45.655Z,99565.72
2023-04-30T14:15:12.218Z,99564.94
2023-04-30T14:17:38.838Z,99576.25
2023-04-30T14:20:06.032Z,99572.56
2023-04-30T14:22:34.581Z,99567.91
2023-04-30T14:25:01.183Z,99568.00
2023-04-30T14:27:27.688Z,99566.69
2023-04-30T14:29:54.584Z,99564.75
2023-04-30T14:32:21.600Z,99561.91
2023-04-30T14:34:48.171Z,99565.69
2023-04-30T14:37:15.615Z,99558.25
2023-04-30T14:39:42.574Z,99564.72
2023-04-30T14:42:09.643Z,99551.13
2023-04-30T14:44:37.945Z,99551.06
2023-04-30T14:47:04.717Z,99548.56
2023-04-30T14:49:31.538Z,99558.63
2023-04-30T14:51:58.077Z,99559.13
2023-04-30T14:54:24.667Z,99554.09
2023-04-30T14:56:52.083Z,99555.53
2023-04-30T14:59:18.591Z,99561.09
2023-04-30T15:01:45.263Z,99552.59
2023-04-30T15:04:11.999Z,99556.06
2023-04-30T15:06:38.637Z,99546.16
2023-04-30T15:09:06.393Z,99547.78
2023-04-30T15:11:32.929Z,99542.47
2023-04-30T15:13:59.521Z,99543.56
2023-04-30T15:16:26.563Z,99543.75
2023-04-30T15:18:54.274Z,99539.59
2023-04-30T15:21:20.763Z,99529.94
2023-04-30T15:23:47.734Z,99537.28
2023-04-30T15:26:14.368Z,99522.41
2023-04-30T15:28:40.893Z,99531.00
2023-04-30T15:31:07.508Z,99530.75
2023-04-30T15:33:39.534Z,99529.34
2023-04-30T15:36:06.513Z,99520.84
2023-04-30T15:38:33.195Z,99524.78
2023-04-30T15:40:59.724Z,99518.88
2023-04-30T15:43:26.325Z,99515.97
2023-04-30T15:45:53.125Z,99523.66
2023-04-30T15:48:19.861Z,99513.25
2023-04-30T15:50:46.416Z,99508.84
2023-04-30T15:53:12.917Z,99502.19
2023-04-30T15:55:39.671Z,99506.91
2023-04-30T15:58:06.358Z,99499.88
2023-04-30T16:00:33.668Z,99498.00
2023-04-30T16:03:00.697Z,99501.34
2023-04-30T16:05:27.678Z,99503.47
2023-04-30T16:07:54.550Z,99497.03
2023-04-30T16:10:21.659Z,99493.34
2023-04-30T16:12:48.647Z,99492.59
2023-04-30T16:15:15.278Z,99498.19
2023-04-30T16:17:41.879Z,99487.72
2023-04-30T16:20:08.878Z,99493.59
2023-04-30T16:22:35.644Z,99487.06
2023-04-30T16:25:02.294Z,99488.94
2023-04-30T16:27:28.810Z,99494.47
2023-04-30T16:29:55.617Z,99486.28
2023-04-30T16:32:22.462Z,99490.59
2023-04-30T16:34:49.149Z,99490.69
2023-04-30T16:37:15.790Z,99484.69
2023-04-30T16:39:42.542Z,99484.53
2023-04-30T16:42:09.358Z,99484.19
2023-04-30T16:44:35.964Z,99495.72
2023-04-30T16:47:02.741Z,99494.69
2023-04-30T16:49:29.239Z,99494.00
2023-04-30T16:51:55.831Z,99485.09
2023-04-30T16:54:22.513Z,99483.75
2023-04-30T16:56:49.004Z,99484.00
2023-04-30T16:59:15.524Z,99490.22
2023-04-30T17:01:42.184Z,99487.72
2023-04-30T17:04:08.737Z,99488.22
2023-04-30T17:06:35.761Z,99486.91
2023-04-30T17:09:02.513Z,99477.34
2023-04-30T17:11:29.147Z,99483.16
2023-04-30T17:13:56.022Z,99485.72
2023-04-30T17:16:22.789Z,99481.63
2023-04-30T17:18:49.469Z,99476.06
2023-04-30T17:21:16.118Z,99476.78
2023-04-30T17:23:42.776Z,99475.06
2023-04-30T17:26:09.796Z,99474.19
2023-04-30T17:28:37.482Z,99465.75
2023-04-30T17:31:07.119Z,99477.66
2023-04-30T17:33:34.094Z,99486.84
2023-04-30T17:36:00.758Z,99483.78
2023-04-30T17:38:27.421Z,99480.47
2023-04-30T17:40:54.293Z,99484.59
2023-04-30T17:43:20.821Z,99490.22
2023-04-30T17:45:47.593Z,99485.78
2023-04-30T17:48:14.275Z,99487.50
2023-04-30T17:50:41.266Z,99479.06
2023-04-30T17:53:07.862Z,99484.22
2023-04-30T17:55:34.425Z,99483.09
2023-04-30T17:58:01.027Z,99487.78
2023-04-30T18:00:27.550Z,99494.00
2023-04-30T18:02:54.202Z,99491.59
2023-04-30T18:05:20.980Z,99491.50
2023-04-30T18:07:48.502Z,99489.41
2023-04-30T18:10:15.183Z,99497.13
2023-04-30T18:12:42.012Z,99485.69
2023-04-30T18:15:08.947Z,99494.47
2023-04-30T18:17:37.246Z,99485.34
2023-04-30T18:20:04.545Z,99494.13
2023-04-30T18:22:31.085Z,99488.63
2023-04-30T18:24:57.666Z,99491.28
2023-04-30T18:27:24.170Z,99483.00
2023-04-30T18:29:51.636Z,99484.06
2023-04-30T18:32:18.470Z,99480.44
2023-04-30T18:34:45.062Z,99480.69
2023-04-30T18:37:11.679Z,99486.03
2023-04-30T18:39:38.210Z,99489.31
2023-04-30T18:42:04.853Z,99489.19
2023-04-30T18:44:32.118Z,99483.16
2023-04-30T18:46:58.983Z,99488.97
2023-04-30T18:49:25.586Z,99486.09
2023-04-30T18:51:52.195Z,99488.66
2023-04-30T18:54:18.716Z,99487.38
2023-04-30T18:56:45.328Z,99489.34
2023-04-30T18:59:11.898Z,99486.31
2023-04-30T19:01:38.514Z,99488.38
2023-04-30T19:04:05.127Z,99495.59
2023-04-30T19:06:33.481Z,99486.16
2023-04-30T19:09:00.080Z,99493.84
2023-04-30T19:11:27.167Z,99502.16
2023-04-30T19:13:53.778Z,99487.91
2023-04-30T19:16:20.326Z,99497.50
2023-04-30T19:18:47.044Z,99490.94
2023-04-30T19:21:14.890Z,99495.59
2023-04-30T19:23:41.506Z,99491.59
2023-04-30T19:26:08.028Z,99500.09
2023-04-30T19:28:34.572Z,99495.59
2023-04-30T19:31:01.245Z,99497.34
2023-04-30T19:33:28.410Z,99505.50
2023-04-30T19:35:55.192Z,99502.78
2023-04-30T19:38:21.974Z,99499.59
2023-04-30T19:40:52.525Z,99502.31
2023-04-30T19:43:20.523Z,99502.47
2023-04-30T19:45:51.931Z,99511.25
2023-04-30T19:48:18.556Z,99507.06
2023-04-30T19:50:46.790Z,99503.41
2023-04-30T19:53:14.203Z,99508.50
2023-04-30T19:55:40.808Z,99504.31
2023-04-30T19:58:07.636Z,99500.13
2023-04-30T20:00:37.220Z,99496.59
2023-04-30T20:03:05.381Z,99497.06
2023-04-30T20:05:32.747Z,99499.09
2023-04-30T20:07:59.804Z,99501.97
2023-04-30T20:10:26.480Z,99504.66
2023-04-30T20:12:53.780Z,99501.28
2023-04-30T20:15:21.808Z,99504.13
2023-04-30T20:17:50.190Z,99499.97
2023-04-30T20:20:17.520Z,99508.25
2023-04-30T20:22:44.211Z,99506.75
2023-04-30T20:25:10.783Z,99505.78
2023-04-30T20:27:37.313Z,99502.72
2023-04-30T20:30:04.746Z,99502.88
2023-04-30T20:32:31.735Z,99497.53
2023-04-30T20:34:58.838Z,99494.47
2023-04-30T20:37:25.555Z,99505.47
2023-04-30T20:39:52.219Z,99494.75
2023-04-30T20:42:19.831Z,99492.63
2023-04-30T20:44:47.411Z,99490.84
2023-04-30T20:47:16.939Z,99502.78
2023-04-30T20:49:43.608Z,99498.00
2023-04-30T20:52:12.142Z,99499.69
2023-04-30T20:54:39.302Z,99499.81
2023-04-30T20:57:06.027Z,99495.31
2023-04-30T20:59:33.000Z,99497.53
2023-04-30T21:01:59.607Z,99494.34
2023-04-30T21:04:26.173Z,99496.38
2023-04-30T21:06:52.676Z,99492.97
2023-04-30T21:09:19.210Z,99484.97
2023-04-30T21:11:45.836Z,99476.94
2023-04-30T21:14:12.418Z,99479.47
2023-04-30T21:16:40.666Z,99473.38
2023-04-30T21:19:07.393Z,99476.97
2023-04-30T21:21:34.496Z,99475.78
2023-04-30T21:24:01.192Z,99475.63
2023-04-30T21:26:28.183Z,99468.41
2023-04-30T21:28:54.769Z,99472.84
2023-04-30T21:31:21.402Z,99473.44
2023-04-30T21:33:48.174Z,99462.91
2023-04-30T21:36:16.434Z,99465.44
2023-04-30T21:38:43.169Z,99470.44
2023-04-30T21:41:14.383Z,99471.06
2023-04-30T21:43:44.322Z,99455.09
2023-04-30T21:46:11.142Z,99453.81
2023-04-30T21:48:38.476Z,99463.34
2023-04-30T21:51:16.913Z,99452.81
2023-04-30T21:53:44.566Z,99452.81
2023-04-30T21:56:11.961Z,99462.06
2023-04-30T21:58:39.408Z,99453.44
2023-04-30T22:01:06.342Z,99449.91
2023-04-30T22:03:33.365Z,99448.59
2023-04-30T22:06:00.788Z,99447.81
2023-04-30T22:08:27.564Z,99443.50
2023-04-30T22:10:58.992Z,99440.28
2023-04-30T22:13:29.466Z,99429.75
2023-04-30T22:15:56.592Z,99431.19
2023-04-30T22:18:24.458Z,99435.28
2023-04-30T22:20:52.322Z,99424.72
2023-04-30T22:23:21.286Z,99420.75
2023-04-30T22:25:48.231Z,99425.66
2023-04-30T22:28:16.931Z,99424.63
2023-04-30T22:30:43.895Z,99420.13
2023-04-30T22:33:10.721Z,99426.94
2023-04-30T22:35:40.408Z,99416.72
2023-04-30T22:38:07.585Z,99421.13
2023-04-30T22:40:38.380Z,99420.63
2023-04-30T22:43:05.937Z,99420.13
2023-04-30T22:45:32.805Z,99416.94
2023-04-30T22:48:01.608Z,99422.41
2023-04-30T22:50:30.048Z,99417.34
2023-04-30T22:52:56.791Z,99412.53
2023-04-30T22:55:23.421Z,99405.00
2023-04-30T22:57:50.002Z,99411.31
2023-04-30T23:00:19.100Z,99411.91
2023-04-30T23:02:45.965Z,99416.84
2023-04-30T23:05:12.944Z,99404.97
2023-04-30T23:07:39.750Z,99409.88
2023-04-30T23:10:06.819Z,99410.50
2023-04-30T23:12:33.366Z,99415.91
2023-04-30T23:14:59.955Z,99405.69
2023-04-30T23:17:26.965Z,99400.28
2023-04-30T23:19:54.062Z,99403.28
2023-04-30T23:22:20.832Z,99411.91
2023-04-30T23:24:47.488Z,99399.38
2023-04-30T23:27:14.243Z,99396.84
2023-04-30T23:29:40.949Z,99402.19
2023-04-30T23:32:07.572Z,99398.88
2023-04-30T23:34:34.437Z,99403.69
2023-04-30T23:37:01.059Z,99391.75
2023-04-30T23:39:27.589Z,99392.25
2023-04-30T23:41:54.595Z,99394.34
2023-04-30T23:44:21.713Z,99391.03
2023-04-30T23:46:48.431Z,99386.44
2023-04-30T23:49:16.562Z,99382.34
2023-04-30T23:51:43.061Z,99382.53
2023-04-30T23:54:09.555Z,99379.41
2023-04-30T23:56:37.410Z,99377.19
2023-04-30T23:59:05.300Z,99377.69
